sensor_id;sensor_type;location;lat;lon;timestamp;P1;durP1;ratioP1;P2;durP2;ratioP2
44428;SDS011;30134;47.866;-4.222;2022-07-06T00:01:54;7.38;;;5.40;;
44428;SDS011;30134;47.866;-4.222;2022-07-06T00:04:20;6.57;;;5.00;;
44428;SDS011;30134;47.866;-4.222;2022-07-06T00:06:46;6.15;;;4.70;;
44428;SDS011;30134;47.866;-4.222;2022-07-06T00:09:15;7.03;;;5.50;;
44428;SDS011;30134;47.866;-4.222;2022-07-06T00:11:41;6.13;;;4.70;;
44428;SDS011;30134;47.866;-4.222;2022-07-06T00:14:07;9.85;;;5.35;;
44428;SDS011;30134;47.866;-4.222;2022-07-06T00:16:33;5.78;;;4.38;;
44428;SDS011;30134;47.866;-4.222;2022-07-06T00:18:59;5.38;;;4.50;;
44428;SDS011;30134;47.866;-4.222;2022-07-06T00:21:25;5.95;;;4.47;;
44428;SDS011;30134;47.866;-4.222;2022-07-06T00:23:51;6.85;;;4.63;;
44428;SDS011;30134;47.866;-4.222;2022-07-06T00:26:18;7.82;;;4.38;;
44428;SDS011;30134;47.866;-4.222;2022-07-06T00:28:44;6.10;;;4.35;;
44428;SDS011;30134;47.866;-4.222;2022-07-06T00:31:10;6.88;;;4.20;;
44428;SDS011;30134;47.866;-4.222;2022-07-06T00:33:36;5.70;;;3.80;;
44428;SDS011;30134;47.866;-4.222;2022-07-06T00:36:02;5.60;;;4.25;;
44428;SDS011;30134;47.866;-4.222;2022-07-06T00:38:40;5.15;;;3.45;;
44428;SDS011;30134;47.866;-4.222;2022-07-06T00:41:06;4.85;;;3.65;;
44428;SDS011;30134;47.866;-4.222;2022-07-06T00:43:48;5.22;;;3.72;;
44428;SDS011;30134;47.866;-4.222;2022-07-06T00:46:22;8.23;;;4.25;;
44428;SDS011;30134;47.866;-4.222;2022-07-06T00:48:58;4.30;;;3.20;;
44428;SDS011;30134;47.866;-4.222;2022-07-06T00:51:34;6.30;;;3.55;;
44428;SDS011;30134;47.866;-4.222;2022-07-06T00:54:03;5.10;;;3.75;;
44428;SDS011;30134;47.866;-4.222;2022-07-06T00:56:30;4.50;;;3.00;;
44428;SDS011;30134;47.866;-4.222;2022-07-06T00:58:58;4.65;;;3.03;;
44428;SDS011;30134;47.866;-4.222;2022-07-06T01:01:26;3.50;;;2.80;;
44428;SDS011;30134;47.866;-4.222;2022-07-06T01:03:52;4.88;;;3.05;;
44428;SDS011;30134;47.866;-4.222;2022-07-06T01:06:18;4.55;;;3.00;;
44428;SDS011;30134;47.866;-4.222;2022-07-06T01:08:47;3.75;;;2.53;;
44428;SDS011;30134;47.866;-4.222;2022-07-06T01:11:13;3.30;;;2.83;;
44428;SDS011;30134;47.866;-4.222;2022-07-06T01:13:39;5.28;;;2.97;;
44428;SDS011;30134;47.866;-4.222;2022-07-06T01:16:06;3.50;;;2.60;;
44428;SDS011;30134;47.866;-4.222;2022-07-06T01:18:32;3.78;;;2.70;;
44428;SDS011;30134;47.866;-4.222;2022-07-06T01:21:07;6.20;;;2.60;;
44428;SDS011;30134;47.866;-4.222;2022-07-06T01:23:38;4.65;;;2.78;;
44428;SDS011;30134;47.866;-4.222;2022-07-06T01:26:08;3.13;;;2.30;;
44428;SDS011;30134;47.866;-4.222;2022-07-06T01:28:36;5.70;;;2.60;;
44428;SDS011;30134;47.866;-4.222;2022-07-06T01:31:02;3.78;;;2.72;;
44428;SDS011;30134;47.866;-4.222;2022-07-06T01:33:28;4.63;;;2.72;;
44428;SDS011;30134;47.866;-4.222;2022-07-06T01:35:53;4.10;;;2.60;;
44428;SDS011;30134;47.866;-4.222;2022-07-06T01:38:19;3.40;;;2.30;;
44428;SDS011;30134;47.866;-4.222;2022-07-06T01:40:45;3.85;;;2.15;;
44428;SDS011;30134;47.866;-4.222;2022-07-06T01:43:11;3.90;;;2.20;;
44428;SDS011;30134;47.866;-4.222;2022-07-06T01:45:37;3.67;;;2.00;;
44428;SDS011;30134;47.866;-4.222;2022-07-06T01:48:06;3.15;;;2.20;;
44428;SDS011;30134;47.866;-4.222;2022-07-06T01:50:33;3.35;;;2.50;;
44428;SDS011;30134;47.866;-4.222;2022-07-06T01:52:59;3.28;;;2.15;;
44428;SDS011;30134;47.866;-4.222;2022-07-06T01:55:25;2.72;;;2.15;;
44428;SDS011;30134;47.866;-4.222;2022-07-06T01:57:51;2.58;;;1.98;;
44428;SDS011;30134;47.866;-4.222;2022-07-06T02:00:17;2.75;;;2.20;;
44428;SDS011;30134;47.866;-4.222;2022-07-06T02:02:43;2.67;;;2.03;;
44428;SDS011;30134;47.866;-4.222;2022-07-06T02:05:11;2.47;;;1.95;;
44428;SDS011;30134;47.866;-4.222;2022-07-06T02:07:37;3.63;;;2.10;;
44428;SDS011;30134;47.866;-4.222;2022-07-06T02:10:04;2.28;;;2.08;;
44428;SDS011;30134;47.866;-4.222;2022-07-06T02:12:30;3.58;;;2.10;;
44428;SDS011;30134;47.866;-4.222;2022-07-06T02:14:56;3.20;;;2.13;;
44428;SDS011;30134;47.866;-4.222;2022-07-06T02:17:22;2.40;;;2.05;;
44428;SDS011;30134;47.866;-4.222;2022-07-06T02:19:48;2.38;;;1.70;;
44428;SDS011;30134;47.866;-4.222;2022-07-06T02:22:13;2.58;;;1.88;;
44428;SDS011;30134;47.866;-4.222;2022-07-06T02:24:40;2.53;;;1.88;;
44428;SDS011;30134;47.866;-4.222;2022-07-06T02:27:06;2.15;;;1.80;;
44428;SDS011;30134;47.866;-4.222;2022-07-06T02:29:32;2.72;;;1.88;;
44428;SDS011;30134;47.866;-4.222;2022-07-06T02:31:58;3.08;;;1.75;;
44428;SDS011;30134;47.866;-4.222;2022-07-06T02:34:23;3.45;;;1.88;;
44428;SDS011;30134;47.866;-4.222;2022-07-06T02:36:51;3.55;;;1.63;;
44428;SDS011;30134;47.866;-4.222;2022-07-06T02:39:17;2.13;;;1.50;;
44428;SDS011;30134;47.866;-4.222;2022-07-06T02:41:43;2.45;;;1.70;;
44428;SDS011;30134;47.866;-4.222;2022-07-06T02:44:09;2.20;;;1.63;;
44428;SDS011;30134;47.866;-4.222;2022-07-06T02:46:35;2.53;;;1.52;;
44428;SDS011;30134;47.866;-4.222;2022-07-06T02:49:01;2.17;;;1.60;;
44428;SDS011;30134;47.866;-4.222;2022-07-06T02:51:27;2.33;;;1.60;;
44428;SDS011;30134;47.866;-4.222;2022-07-06T02:53:53;2.25;;;1.80;;
44428;SDS011;30134;47.866;-4.222;2022-07-06T02:56:19;1.88;;;1.50;;
44428;SDS011;30134;47.866;-4.222;2022-07-06T02:58:47;1.90;;;1.30;;
44428;SDS011;30134;47.866;-4.222;2022-07-06T03:01:13;2.13;;;1.60;;
44428;SDS011;30134;47.866;-4.222;2022-07-06T03:03:39;1.88;;;1.45;;
44428;SDS011;30134;47.866;-4.222;2022-07-06T03:06:05;2.17;;;1.23;;
44428;SDS011;30134;47.866;-4.222;2022-07-06T03:08:31;1.40;;;1.30;;
44428;SDS011;30134;47.866;-4.222;2022-07-06T03:10:59;107.10;;;79.47;;
44428;SDS011;30134;47.866;-4.222;2022-07-06T03:13:26;169.43;;;121.50;;
44428;SDS011;30134;47.866;-4.222;2022-07-06T03:15:53;182.52;;;129.70;;
44428;SDS011;30134;47.866;-4.222;2022-07-06T03:18:20;155.75;;;110.72;;
44428;SDS011;30134;47.866;-4.222;2022-07-06T03:20:46;114.03;;;80.85;;
44428;SDS011;30134;47.866;-4.222;2022-07-06T03:23:12;72.53;;;53.08;;
44428;SDS011;30134;47.866;-4.222;2022-07-06T03:25:38;64.30;;;48.47;;
44428;SDS011;30134;47.866;-4.222;2022-07-06T03:28:04;58.38;;;43.70;;
44428;SDS011;30134;47.866;-4.222;2022-07-06T03:30:31;58.20;;;42.60;;
44428;SDS011;30134;47.866;-4.222;2022-07-06T03:32:57;57.50;;;43.20;;
44428;SDS011;30134;47.866;-4.222;2022-07-06T03:35:23;53.47;;;39.25;;
44428;SDS011;30134;47.866;-4.222;2022-07-06T03:37:49;53.83;;;40.20;;
44428;SDS011;30134;47.866;-4.222;2022-07-06T03:40:15;50.20;;;38.03;;
44428;SDS011;30134;47.866;-4.222;2022-07-06T03:42:41;50.35;;;36.45;;
44428;SDS011;30134;47.866;-4.222;2022-07-06T03:45:07;49.75;;;36.03;;
44428;SDS011;30134;47.866;-4.222;2022-07-06T03:47:34;47.30;;;35.17;;
44428;SDS011;30134;47.866;-4.222;2022-07-06T03:50:00;44.17;;;32.40;;
44428;SDS011;30134;47.866;-4.222;2022-07-06T03:52:26;47.20;;;32.67;;
44428;SDS011;30134;47.866;-4.222;2022-07-06T03:54:52;41.75;;;31.77;;
44428;SDS011;30134;47.866;-4.222;2022-07-06T03:57:17;38.55;;;29.98;;
44428;SDS011;30134;47.866;-4.222;2022-07-06T03:59:43;39.58;;;28.42;;
44428;SDS011;30134;47.866;-4.222;2022-07-06T04:02:12;48.92;;;36.28;;
44428;SDS011;30134;47.866;-4.222;2022-07-06T04:04:37;78.25;;;57.25;;
44428;SDS011;30134;47.866;-4.222;2022-07-06T04:07:04;67.43;;;50.58;;
44428;SDS011;30134;47.866;-4.222;2022-07-06T04:09:29;85.03;;;60.95;;
44428;SDS011;30134;47.866;-4.222;2022-07-06T04:11:55;67.40;;;50.45;;
44428;SDS011;30134;47.866;-4.222;2022-07-06T04:14:21;63.20;;;47.40;;
44428;SDS011;30134;47.866;-4.222;2022-07-06T04:16:47;54.85;;;40.75;;
44428;SDS011;30134;47.866;-4.222;2022-07-06T04:19:13;46.35;;;34.40;;
44428;SDS011;30134;47.866;-4.222;2022-07-06T04:21:39;41.72;;;30.92;;
44428;SDS011;30134;47.866;-4.222;2022-07-06T04:24:05;49.13;;;34.60;;
44428;SDS011;30134;47.866;-4.222;2022-07-06T04:26:33;42.72;;;31.67;;
44428;SDS011;30134;47.866;-4.222;2022-07-06T04:28:59;36.45;;;27.42;;
44428;SDS011;30134;47.866;-4.222;2022-07-06T04:31:25;40.40;;;30.48;;
44428;SDS011;30134;47.866;-4.222;2022-07-06T04:33:51;39.15;;;30.48;;
44428;SDS011;30134;47.866;-4.222;2022-07-06T04:36:19;38.75;;;27.67;;
44428;SDS011;30134;47.866;-4.222;2022-07-06T04:38:46;33.25;;;25.83;;
44428;SDS011;30134;47.866;-4.222;2022-07-06T04:41:12;35.58;;;25.63;;
44428;SDS011;30134;47.866;-4.222;2022-07-06T04:43:38;31.67;;;24.27;;
44428;SDS011;30134;47.866;-4.222;2022-07-06T04:46:04;31.27;;;23.17;;
44428;SDS011;30134;47.866;-4.222;2022-07-06T04:48:30;29.52;;;23.08;;
44428;SDS011;30134;47.866;-4.222;2022-07-06T04:51:01;28.17;;;22.00;;
44428;SDS011;30134;47.866;-4.222;2022-07-06T04:53:27;29.08;;;21.13;;
44428;SDS011;30134;47.866;-4.222;2022-07-06T04:55:53;29.55;;;21.58;;
44428;SDS011;30134;47.866;-4.222;2022-07-06T04:58:19;25.60;;;18.98;;
44428;SDS011;30134;47.866;-4.222;2022-07-06T05:00:45;26.25;;;19.85;;
44428;SDS011;30134;47.866;-4.222;2022-07-06T05:03:11;23.85;;;17.85;;
44428;SDS011;30134;47.866;-4.222;2022-07-06T05:05:37;24.88;;;18.80;;
44428;SDS011;30134;47.866;-4.222;2022-07-06T05:08:03;22.27;;;17.15;;
44428;SDS011;30134;47.866;-4.222;2022-07-06T05:10:29;21.38;;;15.50;;
44428;SDS011;30134;47.866;-4.222;2022-07-06T05:12:56;22.25;;;16.70;;
44428;SDS011;30134;47.866;-4.222;2022-07-06T05:15:22;21.98;;;16.15;;
44428;SDS011;30134;47.866;-4.222;2022-07-06T05:17:48;18.70;;;15.13;;
44428;SDS011;30134;47.866;-4.222;2022-07-06T05:20:14;19.13;;;14.82;;
44428;SDS011;30134;47.866;-4.222;2022-07-06T05:22:40;19.17;;;14.93;;
44428;SDS011;30134;47.866;-4.222;2022-07-06T05:25:06;18.45;;;14.00;;
44428;SDS011;30134;47.866;-4.222;2022-07-06T05:27:32;17.10;;;12.55;;
44428;SDS011;30134;47.866;-4.222;2022-07-06T05:30:00;18.13;;;14.25;;
44428;SDS011;30134;47.866;-4.222;2022-07-06T05:32:26;17.08;;;12.77;;
44428;SDS011;30134;47.866;-4.222;2022-07-06T05:34:52;16.42;;;12.70;;
44428;SDS011;30134;47.866;-4.222;2022-07-06T05:37:18;15.85;;;11.70;;
44428;SDS011;30134;47.866;-4.222;2022-07-06T05:39:44;14.18;;;11.05;;
44428;SDS011;30134;47.866;-4.222;2022-07-06T05:42:12;13.35;;;11.30;;
44428;SDS011;30134;47.866;-4.222;2022-07-06T05:44:38;12.88;;;10.13;;
44428;SDS011;30134;47.866;-4.222;2022-07-06T05:47:04;12.90;;;10.32;;
44428;SDS011;30134;47.866;-4.222;2022-07-06T05:49:48;12.60;;;9.80;;
44428;SDS011;30134;47.866;-4.222;2022-07-06T05:52:33;9.50;;;7.82;;
44428;SDS011;30134;47.866;-4.222;2022-07-06T05:54:59;12.02;;;9.63;;
44428;SDS011;30134;47.866;-4.222;2022-07-06T05:57:25;11.98;;;9.13;;
44428;SDS011;30134;47.866;-4.222;2022-07-06T05:59:52;13.40;;;9.48;;
44428;SDS011;30134;47.866;-4.222;2022-07-06T06:02:18;12.45;;;8.88;;
44428;SDS011;30134;47.866;-4.222;2022-07-06T06:04:45;12.23;;;8.77;;
44428;SDS011;30134;47.866;-4.222;2022-07-06T06:07:11;11.88;;;9.52;;
44428;SDS011;30134;47.866;-4.222;2022-07-06T06:09:37;10.70;;;8.65;;
44428;SDS011;30134;47.866;-4.222;2022-07-06T06:12:06;12.50;;;8.98;;
44428;SDS011;30134;47.866;-4.222;2022-07-06T06:14:32;9.18;;;7.95;;
44428;SDS011;30134;47.866;-4.222;2022-07-06T06:16:58;10.45;;;8.85;;
44428;SDS011;30134;47.866;-4.222;2022-07-06T06:19:24;10.30;;;8.27;;
44428;SDS011;30134;47.866;-4.222;2022-07-06T06:21:50;11.10;;;8.23;;
44428;SDS011;30134;47.866;-4.222;2022-07-06T06:24:17;11.02;;;7.90;;
44428;SDS011;30134;47.866;-4.222;2022-07-06T06:26:43;13.50;;;8.55;;
44428;SDS011;30134;47.866;-4.222;2022-07-06T06:29:09;9.45;;;7.40;;
44428;SDS011;30134;47.866;-4.222;2022-07-06T06:31:35;11.50;;;7.97;;
44428;SDS011;30134;47.866;-4.222;2022-07-06T06:34:02;9.00;;;6.75;;
44428;SDS011;30134;47.866;-4.222;2022-07-06T06:36:28;7.70;;;5.88;;
44428;SDS011;30134;47.866;-4.222;2022-07-06T06:38:54;7.38;;;6.03;;
44428;SDS011;30134;47.866;-4.222;2022-07-06T06:41:20;4.93;;;3.95;;
44428;SDS011;30134;47.866;-4.222;2022-07-06T06:43:45;8.55;;;3.78;;
44428;SDS011;30134;47.866;-4.222;2022-07-06T06:46:12;5.57;;;3.55;;
44428;SDS011;30134;47.866;-4.222;2022-07-06T06:48:38;5.20;;;3.03;;
44428;SDS011;30134;47.866;-4.222;2022-07-06T06:51:04;6.43;;;2.40;;
44428;SDS011;30134;47.866;-4.222;2022-07-06T06:53:30;5.18;;;2.67;;
44428;SDS011;30134;47.866;-4.222;2022-07-06T06:55:56;5.28;;;2.10;;
44428;SDS011;30134;47.866;-4.222;2022-07-06T06:58:22;5.50;;;2.20;;
44428;SDS011;30134;47.866;-4.222;2022-07-06T07:00:48;5.32;;;1.80;;
44428;SDS011;30134;47.866;-4.222;2022-07-06T07:03:14;4.95;;;2.05;;
44428;SDS011;30134;47.866;-4.222;2022-07-06T07:05:40;3.45;;;1.60;;
44428;SDS011;30134;47.866;-4.222;2022-07-06T07:08:06;3.38;;;1.83;;
44428;SDS011;30134;47.866;-4.222;2022-07-06T07:10:32;3.55;;;1.95;;
44428;SDS011;30134;47.866;-4.222;2022-07-06T07:12:58;5.75;;;1.70;;
44428;SDS011;30134;47.866;-4.222;2022-07-06T07:15:24;2.08;;;1.42;;
44428;SDS011;30134;47.866;-4.222;2022-07-06T07:17:51;3.05;;;1.80;;
44428;SDS011;30134;47.866;-4.222;2022-07-06T07:20:17;9.77;;;4.38;;
44428;SDS011;30134;47.866;-4.222;2022-07-06T07:22:43;40.03;;;22.00;;
44428;SDS011;30134;47.866;-4.222;2022-07-06T07:25:09;89.70;;;55.00;;
44428;SDS011;30134;47.866;-4.222;2022-07-06T07:27:35;46.38;;;29.90;;
44428;SDS011;30134;47.866;-4.222;2022-07-06T07:30:01;20.75;;;13.13;;
44428;SDS011;30134;47.866;-4.222;2022-07-06T07:32:28;14.48;;;8.52;;
44428;SDS011;30134;47.866;-4.222;2022-07-06T07:34:54;8.68;;;5.35;;
44428;SDS011;30134;47.866;-4.222;2022-07-06T07:37:20;5.15;;;3.75;;
44428;SDS011;30134;47.866;-4.222;2022-07-06T07:39:46;8.82;;;3.35;;
44428;SDS011;30134;47.866;-4.222;2022-07-06T07:42:11;4.15;;;2.67;;
44428;SDS011;30134;47.866;-4.222;2022-07-06T07:44:37;4.38;;;2.33;;
44428;SDS011;30134;47.866;-4.222;2022-07-06T07:47:04;4.10;;;2.10;;
44428;SDS011;30134;47.866;-4.222;2022-07-06T07:49:30;4.72;;;1.80;;
44428;SDS011;30134;47.866;-4.222;2022-07-06T07:51:56;4.70;;;1.70;;
44428;SDS011;30134;47.866;-4.222;2022-07-06T07:54:24;5.20;;;2.20;;
44428;SDS011;30134;47.866;-4.222;2022-07-06T07:56:50;2.50;;;1.50;;
44428;SDS011;30134;47.866;-4.222;2022-07-06T07:59:16;3.58;;;1.60;;
44428;SDS011;30134;47.866;-4.222;2022-07-06T08:01:41;10.25;;;1.70;;
44428;SDS011;30134;47.866;-4.222;2022-07-06T08:04:08;2.88;;;1.60;;
44428;SDS011;30134;47.866;-4.222;2022-07-06T08:06:34;2.20;;;1.38;;
44428;SDS011;30134;47.866;-4.222;2022-07-06T08:09:00;2.70;;;1.50;;
44428;SDS011;30134;47.866;-4.222;2022-07-06T08:11:28;3.08;;;1.92;;
44428;SDS011;30134;47.866;-4.222;2022-07-06T08:13:54;5.65;;;1.40;;
44428;SDS011;30134;47.866;-4.222;2022-07-06T08:16:20;57.28;;;36.80;;
44428;SDS011;30134;47.866;-4.222;2022-07-06T08:18:46;106.45;;;64.80;;
44428;SDS011;30134;47.866;-4.222;2022-07-06T08:21:12;82.25;;;54.78;;
44428;SDS011;30134;47.866;-4.222;2022-07-06T08:23:38;72.47;;;46.80;;
44428;SDS011;30134;47.866;-4.222;2022-07-06T08:26:06;67.22;;;44.53;;
44428;SDS011;30134;47.866;-4.222;2022-07-06T08:28:32;75.25;;;48.20;;
44428;SDS011;30134;47.866;-4.222;2022-07-06T08:30:58;66.95;;;44.90;;
44428;SDS011;30134;47.866;-4.222;2022-07-06T08:33:24;68.53;;;45.22;;
44428;SDS011;30134;47.866;-4.222;2022-07-06T08:35:50;65.82;;;43.92;;
44428;SDS011;30134;47.866;-4.222;2022-07-06T08:38:17;67.82;;;43.92;;
44428;SDS011;30134;47.866;-4.222;2022-07-06T08:40:44;64.03;;;41.63;;
44428;SDS011;30134;47.866;-4.222;2022-07-06T08:43:14;66.60;;;42.90;;
44428;SDS011;30134;47.866;-4.222;2022-07-06T08:45:41;60.38;;;39.08;;
44428;SDS011;30134;47.866;-4.222;2022-07-06T08:48:11;60.80;;;40.50;;
44428;SDS011;30134;47.866;-4.222;2022-07-06T08:50:37;60.42;;;40.78;;
44428;SDS011;30134;47.866;-4.222;2022-07-06T08:53:04;60.13;;;39.67;;
44428;SDS011;30134;47.866;-4.222;2022-07-06T08:55:33;58.70;;;38.35;;
44428;SDS011;30134;47.866;-4.222;2022-07-06T08:58:00;55.72;;;38.10;;
44428;SDS011;30134;47.866;-4.222;2022-07-06T09:00:29;57.90;;;38.22;;
44428;SDS011;30134;47.866;-4.222;2022-07-06T09:02:58;54.40;;;36.40;;
44428;SDS011;30134;47.866;-4.222;2022-07-06T09:05:25;56.97;;;36.15;;
44428;SDS011;30134;47.866;-4.222;2022-07-06T09:07:53;50.72;;;35.30;;
44428;SDS011;30134;47.866;-4.222;2022-07-06T09:10:21;52.22;;;34.38;;
44428;SDS011;30134;47.866;-4.222;2022-07-06T09:12:47;49.17;;;33.90;;
44428;SDS011;30134;47.866;-4.222;2022-07-06T09:15:14;50.65;;;33.85;;
44428;SDS011;30134;47.866;-4.222;2022-07-06T09:17:41;48.20;;;33.45;;
44428;SDS011;30134;47.866;-4.222;2022-07-06T09:20:09;45.22;;;32.13;;
44428;SDS011;30134;47.866;-4.222;2022-07-06T09:22:36;46.30;;;32.78;;
44428;SDS011;30134;47.866;-4.222;2022-07-06T09:25:11;45.33;;;32.15;;
44428;SDS011;30134;47.866;-4.222;2022-07-06T09:27:41;50.72;;;32.72;;
44428;SDS011;30134;47.866;-4.222;2022-07-06T09:30:15;43.67;;;31.08;;
44428;SDS011;30134;47.866;-4.222;2022-07-06T09:32:43;47.72;;;31.35;;
44428;SDS011;30134;47.866;-4.222;2022-07-06T09:35:35;39.17;;;28.40;;
44428;SDS011;30134;47.866;-4.222;2022-07-06T09:38:11;42.05;;;30.17;;
44428;SDS011;30134;47.866;-4.222;2022-07-06T09:40:43;44.25;;;29.48;;
44428;SDS011;30134;47.866;-4.222;2022-07-06T09:45:41;40.45;;;28.50;;
44428;SDS011;30134;47.866;-4.222;2022-07-06T09:48:13;42.15;;;28.60;;
44428;SDS011;30134;47.866;-4.222;2022-07-06T09:50:48;43.25;;;29.13;;
44428;SDS011;30134;47.866;-4.222;2022-07-06T09:53:28;39.53;;;28.00;;
44428;SDS011;30134;47.866;-4.222;2022-07-06T09:55:54;40.83;;;27.38;;
44428;SDS011;30134;47.866;-4.222;2022-07-06T09:58:23;37.83;;;27.10;;
44428;SDS011;30134;47.866;-4.222;2022-07-06T10:00:49;38.92;;;26.73;;
44428;SDS011;30134;47.866;-4.222;2022-07-06T10:03:16;39.88;;;27.30;;
44428;SDS011;30134;47.866;-4.222;2022-07-06T10:05:45;36.47;;;26.13;;
44428;SDS011;30134;47.866;-4.222;2022-07-06T10:08:14;37.55;;;26.30;;
44428;SDS011;30134;47.866;-4.222;2022-07-06T10:10:42;38.17;;;25.55;;
44428;SDS011;30134;47.866;-4.222;2022-07-06T10:13:09;36.67;;;26.83;;
44428;SDS011;30134;47.866;-4.222;2022-07-06T10:15:37;32.03;;;22.30;;
44428;SDS011;30134;47.866;-4.222;2022-07-06T10:18:06;33.90;;;24.98;;
44428;SDS011;30134;47.866;-4.222;2022-07-06T10:20:35;26.13;;;18.35;;
44428;SDS011;30134;47.866;-4.222;2022-07-06T10:23:04;19.83;;;13.65;;
44428;SDS011;30134;47.866;-4.222;2022-07-06T10:25:32;17.27;;;9.80;;
44428;SDS011;30134;47.866;-4.222;2022-07-06T10:28:00;13.75;;;9.23;;
44428;SDS011;30134;47.866;-4.222;2022-07-06T10:30:27;16.50;;;8.52;;
44428;SDS011;30134;47.866;-4.222;2022-07-06T10:32:56;10.63;;;7.38;;
44428;SDS011;30134;47.866;-4.222;2022-07-06T10:35:24;10.48;;;7.53;;
44428;SDS011;30134;47.866;-4.222;2022-07-06T10:38:03;13.00;;;7.82;;
44428;SDS011;30134;47.866;-4.222;2022-07-06T10:40:36;11.75;;;7.95;;
44428;SDS011;30134;47.866;-4.222;2022-07-06T10:43:33;11.45;;;7.78;;
44428;SDS011;30134;47.866;-4.222;2022-07-06T10:46:01;9.07;;;6.80;;
44428;SDS011;30134;47.866;-4.222;2022-07-06T10:48:42;18.50;;;7.43;;
44428;SDS011;30134;47.866;-4.222;2022-07-06T10:51:10;11.15;;;7.65;;
44428;SDS011;30134;47.866;-4.222;2022-07-06T10:53:59;8.73;;;6.50;;
44428;SDS011;30134;47.866;-4.222;2022-07-06T10:56:32;9.25;;;6.40;;
44428;SDS011;30134;47.866;-4.222;2022-07-06T10:59:15;8.82;;;5.70;;
44428;SDS011;30134;47.866;-4.222;2022-07-06T11:04:45;14.90;;;8.82;;
44428;SDS011;30134;47.866;-4.222;2022-07-06T11:07:16;11.50;;;7.28;;
44428;SDS011;30134;47.866;-4.222;2022-07-06T11:09:53;8.82;;;5.97;;
44428;SDS011;30134;47.866;-4.222;2022-07-06T11:12:25;5.82;;;4.70;;
44428;SDS011;30134;47.866;-4.222;2022-07-06T11:14:52;9.32;;;4.35;;
44428;SDS011;30134;47.866;-4.222;2022-07-06T11:17:19;6.57;;;4.25;;
44428;SDS011;30134;47.866;-4.222;2022-07-06T11:19:55;7.28;;;4.25;;
44428;SDS011;30134;47.866;-4.222;2022-07-06T11:22:23;5.35;;;3.70;;
44428;SDS011;30134;47.866;-4.222;2022-07-06T11:24:51;5.53;;;3.63;;
44428;SDS011;30134;47.866;-4.222;2022-07-06T11:27:18;29.83;;;21.65;;
44428;SDS011;30134;47.866;-4.222;2022-07-06T11:29:44;57.20;;;38.03;;
44428;SDS011;30134;47.866;-4.222;2022-07-06T11:32:12;51.55;;;36.50;;
44428;SDS011;30134;47.866;-4.222;2022-07-06T11:34:40;45.88;;;31.05;;
44428;SDS011;30134;47.866;-4.222;2022-07-06T11:37:08;51.63;;;36.45;;
44428;SDS011;30134;47.866;-4.222;2022-07-06T11:39:43;33.63;;;23.27;;
44428;SDS011;30134;47.866;-4.222;2022-07-06T11:42:11;36.05;;;24.10;;
44428;SDS011;30134;47.866;-4.222;2022-07-06T11:44:39;34.83;;;21.20;;
44428;SDS011;30134;47.866;-4.222;2022-07-06T11:47:07;27.77;;;20.45;;
44428;SDS011;30134;47.866;-4.222;2022-07-06T11:49:35;26.33;;;19.38;;
44428;SDS011;30134;47.866;-4.222;2022-07-06T11:52:06;25.35;;;18.05;;
44428;SDS011;30134;47.866;-4.222;2022-07-06T11:54:37;23.85;;;17.10;;
44428;SDS011;30134;47.866;-4.222;2022-07-06T11:57:06;25.50;;;17.90;;
44428;SDS011;30134;47.866;-4.222;2022-07-06T11:59:36;21.27;;;15.77;;
44428;SDS011;30134;47.866;-4.222;2022-07-06T12:02:07;23.42;;;17.05;;
44428;SDS011;30134;47.866;-4.222;2022-07-06T12:04:39;16.83;;;11.32;;
44428;SDS011;30134;47.866;-4.222;2022-07-06T12:07:08;17.83;;;13.57;;
44428;SDS011;30134;47.866;-4.222;2022-07-06T12:09:40;14.57;;;11.07;;
44428;SDS011;30134;47.866;-4.222;2022-07-06T12:12:08;14.85;;;10.55;;
44428;SDS011;30134;47.866;-4.222;2022-07-06T12:14:40;12.63;;;8.50;;
44428;SDS011;30134;47.866;-4.222;2022-07-06T12:17:11;11.73;;;8.93;;
44428;SDS011;30134;47.866;-4.222;2022-07-06T12:19:39;12.47;;;8.73;;
44428;SDS011;30134;47.866;-4.222;2022-07-06T12:22:06;12.07;;;8.75;;
44428;SDS011;30134;47.866;-4.222;2022-07-06T12:24:34;11.55;;;7.68;;
44428;SDS011;30134;47.866;-4.222;2022-07-06T12:27:12;10.60;;;7.40;;
44428;SDS011;30134;47.866;-4.222;2022-07-06T12:29:44;9.43;;;7.80;;
44428;SDS011;30134;47.866;-4.222;2022-07-06T12:32:21;8.02;;;6.60;;
44428;SDS011;30134;47.866;-4.222;2022-07-06T12:34:47;9.27;;;7.05;;
44428;SDS011;30134;47.866;-4.222;2022-07-06T12:37:30;8.77;;;6.80;;
44428;SDS011;30134;47.866;-4.222;2022-07-06T12:39:56;8.07;;;5.45;;
44428;SDS011;30134;47.866;-4.222;2022-07-06T12:42:23;9.48;;;6.07;;
44428;SDS011;30134;47.866;-4.222;2022-07-06T12:44:52;7.05;;;5.00;;
44428;SDS011;30134;47.866;-4.222;2022-07-06T12:47:19;8.93;;;5.40;;
44428;SDS011;30134;47.866;-4.222;2022-07-06T12:49:49;6.53;;;4.53;;
44428;SDS011;30134;47.866;-4.222;2022-07-06T12:52:32;6.35;;;5.22;;
44428;SDS011;30134;47.866;-4.222;2022-07-06T12:54:59;6.45;;;4.88;;
44428;SDS011;30134;47.866;-4.222;2022-07-06T12:57:26;6.90;;;5.00;;
44428;SDS011;30134;47.866;-4.222;2022-07-06T13:02:32;5.85;;;4.47;;
44428;SDS011;30134;47.866;-4.222;2022-07-06T13:05:03;6.40;;;4.47;;
44428;SDS011;30134;47.866;-4.222;2022-07-06T13:07:33;5.20;;;3.90;;
44428;SDS011;30134;47.866;-4.222;2022-07-06T13:10:02;5.68;;;4.18;;
44428;SDS011;30134;47.866;-4.222;2022-07-06T13:12:33;6.55;;;3.78;;
44428;SDS011;30134;47.866;-4.222;2022-07-06T13:15:00;4.90;;;3.75;;
44428;SDS011;30134;47.866;-4.222;2022-07-06T13:17:28;4.93;;;4.00;;
44428;SDS011;30134;47.866;-4.222;2022-07-06T13:19:53;4.85;;;3.53;;
44428;SDS011;30134;47.866;-4.222;2022-07-06T13:22:20;4.45;;;3.28;;
44428;SDS011;30134;47.866;-4.222;2022-07-06T13:24:46;3.80;;;3.10;;
44428;SDS011;30134;47.866;-4.222;2022-07-06T13:27:12;6.63;;;2.95;;
44428;SDS011;30134;47.866;-4.222;2022-07-06T13:29:39;3.95;;;3.22;;
44428;SDS011;30134;47.866;-4.222;2022-07-06T13:32:05;4.45;;;3.28;;
44428;SDS011;30134;47.866;-4.222;2022-07-06T13:34:32;3.25;;;2.67;;
44428;SDS011;30134;47.866;-4.222;2022-07-06T13:37:02;4.07;;;2.92;;
44428;SDS011;30134;47.866;-4.222;2022-07-06T13:39:30;2.88;;;2.47;;
44428;SDS011;30134;47.866;-4.222;2022-07-06T13:41:57;2.92;;;2.55;;
44428;SDS011;30134;47.866;-4.222;2022-07-06T13:44:23;3.83;;;2.75;;
44428;SDS011;30134;47.866;-4.222;2022-07-06T13:46:49;3.80;;;2.67;;
44428;SDS011;30134;47.866;-4.222;2022-07-06T13:49:15;4.10;;;2.58;;
44428;SDS011;30134;47.866;-4.222;2022-07-06T13:51:42;3.05;;;2.60;;
44428;SDS011;30134;47.866;-4.222;2022-07-06T13:54:08;2.65;;;2.20;;
44428;SDS011;30134;47.866;-4.222;2022-07-06T13:56:34;3.45;;;2.63;;
44428;SDS011;30134;47.866;-4.222;2022-07-06T13:59:02;2.92;;;2.35;;
44428;SDS011;30134;47.866;-4.222;2022-07-06T14:01:28;2.92;;;2.40;;
44428;SDS011;30134;47.866;-4.222;2022-07-06T14:03:53;2.80;;;2.28;;
44428;SDS011;30134;47.866;-4.222;2022-07-06T14:06:19;3.55;;;2.65;;
44428;SDS011;30134;47.866;-4.222;2022-07-06T14:08:48;2.35;;;2.15;;
44428;SDS011;30134;47.866;-4.222;2022-07-06T14:11:14;2.35;;;2.15;;
44428;SDS011;30134;47.866;-4.222;2022-07-06T14:13:41;2.67;;;2.30;;
44428;SDS011;30134;47.866;-4.222;2022-07-06T14:16:08;7.90;;;6.18;;
44428;SDS011;30134;47.866;-4.222;2022-07-06T14:18:35;122.53;;;69.80;;
44428;SDS011;30134;47.866;-4.222;2022-07-06T14:21:02;79.40;;;51.55;;
44428;SDS011;30134;47.866;-4.222;2022-07-06T14:23:29;73.88;;;47.22;;
44428;SDS011;30134;47.866;-4.222;2022-07-06T14:25:56;70.22;;;47.55;;
44428;SDS011;30134;47.866;-4.222;2022-07-06T14:28:23;73.88;;;49.03;;
44428;SDS011;30134;47.866;-4.222;2022-07-06T14:30:49;71.53;;;48.25;;
44428;SDS011;30134;47.866;-4.222;2022-07-06T14:33:16;72.10;;;47.67;;